createdAt,value
2023-05-22T00:01:57.121Z,15.70
2023-05-22T00:04:00.153Z,15.77
2023-05-22T00:06:06.150Z,16.42
2023-05-22T00:08:11.543Z,17.65
2023-05-22T00:10:14.516Z,15.90
2023-05-22T00:12:17.457Z,17.42
2023-05-22T00:14:20.419Z,16.10
2023-05-22T00:16:23.304Z,15.93
2023-05-22T00:18:26.992Z,15.95
2023-05-22T00:20:29.848Z,14.95
2023-05-22T00:22:35.273Z,14.75
2023-05-22T00:24:38.476Z,15.95
2023-05-22T00:26:41.438Z,16.08
2023-05-22T00:28:44.345Z,17.25
2023-05-22T00:30:47.385Z,15.25
2023-05-22T00:32:50.253Z,16.38
2023-05-22T00:34:53.175Z,16.48
2023-05-22T00:36:56.091Z,16.95
2023-05-22T00:39:00.284Z,16.38
2023-05-22T00:41:04.623Z,15.95
2023-05-22T00:43:08.883Z,17.00
2023-05-22T00:45:15.128Z,16.10
2023-05-22T00:47:18.023Z,16.13
2023-05-22T00:49:21.180Z,16.67
2023-05-22T00:51:25.239Z,15.63
2023-05-22T00:53:31.360Z,16.45
2023-05-22T00:55:35.899Z,16.27
2023-05-22T00:57:41.832Z,17.20
2023-05-22T00:59:44.986Z,16.13
2023-05-22T01:01:48.592Z,17.17
2023-05-22T01:03:53.916Z,16.55
2023-05-22T01:05:57.355Z,16.60
2023-05-22T01:08:00.382Z,16.00
2023-05-22T01:10:04.118Z,16.25
2023-05-22T01:12:28.485Z,20.10
2023-05-22T01:14:41.424Z,16.90
2023-05-22T01:16:52.414Z,16.48
2023-05-22T01:19:02.646Z,17.67
2023-05-22T01:21:12.334Z,16.63
2023-05-22T01:23:57.502Z,15.93
2023-05-22T01:26:14.335Z,17.15
2023-05-22T01:28:41.225Z,17.02
2023-05-22T01:30:51.379Z,16.30
2023-05-22T01:32:59.209Z,17.52
2023-05-22T01:35:04.518Z,16.60
2023-05-22T01:37:08.257Z,16.50
2023-05-22T01:39:12.571Z,16.65
2023-05-22T01:41:16.387Z,17.27
2023-05-22T01:43:19.673Z,17.02
2023-05-22T01:45:22.611Z,17.20
2023-05-22T01:47:26.994Z,17.05
2023-05-22T01:49:30.114Z,17.85
2023-05-22T01:51:44.383Z,17.63
2023-05-22T01:53:56.775Z,17.52
2023-05-22T01:56:06.266Z,16.45
2023-05-22T01:58:18.229Z,16.77
2023-05-22T02:00:23.292Z,16.73
2023-05-22T02:02:29.586Z,17.27
2023-05-22T02:04:33.681Z,17.17
2023-05-22T02:06:36.792Z,17.17
2023-05-22T02:08:42.110Z,17.80
2023-05-22T02:10:46.661Z,17.38
2023-05-22T02:12:49.951Z,16.42
2023-05-22T02:14:54.022Z,16.73
2023-05-22T02:16:58.269Z,17.15
2023-05-22T02:19:06.324Z,18.73
2023-05-22T02:21:09.461Z,17.92
2023-05-22T02:23:12.569Z,17.42
2023-05-22T02:25:17.572Z,17.55
2023-05-22T02:27:20.689Z,16.65
2023-05-22T02:29:23.595Z,18.02
2023-05-22T02:31:26.492Z,16.75
2023-05-22T02:33:32.256Z,16.80
2023-05-22T02:35:36.614Z,17.75
2023-05-22T02:37:40.075Z,17.05
2023-05-22T02:39:43.217Z,16.13
2023-05-22T02:41:46.138Z,17.40
2023-05-22T02:43:48.977Z,17.15
2023-05-22T02:45:51.883Z,17.20
2023-05-22T02:47:54.801Z,16.75
2023-05-22T02:49:59.133Z,17.88
2023-05-22T02:52:03.549Z,17.40
2023-05-22T02:54:06.624Z,17.75
2023-05-22T02:56:10.563Z,17.63
2023-05-22T02:58:13.523Z,18.10
2023-05-22T03:00:17.238Z,18.30
2023-05-22T03:02:20.139Z,17.75
2023-05-22T03:04:24.049Z,17.75
2023-05-22T03:06:26.974Z,17.10
2023-05-22T03:08:31.730Z,17.55
2023-05-22T03:10:35.053Z,17.15
2023-05-22T03:12:38.043Z,16.48
2023-05-22T03:14:41.394Z,18.75
2023-05-22T03:16:44.606Z,17.80
2023-05-22T03:18:47.894Z,20.20
2023-05-22T03:20:51.063Z,18.02
2023-05-22T03:22:54.147Z,18.20
2023-05-22T03:24:58.739Z,17.73
2023-05-22T03:27:04.264Z,18.05
2023-05-22T03:29:07.831Z,17.42
2023-05-22T03:31:11.020Z,18.17
2023-05-22T03:33:14.247Z,19.08
2023-05-22T03:35:19.652Z,18.85
2023-05-22T03:37:22.707Z,18.83
2023-05-22T03:39:25.896Z,18.30
2023-05-22T03:41:30.424Z,18.33
2023-05-22T03:43:33.527Z,18.10
2023-05-22T03:45:36.881Z,18.52
2023-05-22T03:47:41.513Z,18.05
2023-05-22T03:49:47.355Z,17.67
2023-05-22T03:51:50.811Z,18.52
2023-05-22T03:53:56.662Z,18.30
2023-05-22T03:55:59.678Z,17.33
2023-05-22T03:58:04.230Z,17.73
2023-05-22T04:00:09.828Z,17.92
2023-05-22T04:02:16.952Z,17.10
2023-05-22T04:04:19.984Z,16.83
2023-05-22T04:06:23.403Z,19.65
2023-05-22T04:08:26.500Z,18.23
2023-05-22T04:10:29.854Z,17.25
2023-05-22T04:12:33.083Z,17.92
2023-05-22T04:14:37.677Z,17.42
2023-05-22T04:16:40.540Z,16.98
2023-05-22T04:18:43.456Z,16.90
2023-05-22T04:20:46.615Z,17.40
2023-05-22T04:22:51.590Z,16.35
2023-05-22T04:24:59.277Z,16.73
2023-05-22T04:27:03.920Z,16.63
2023-05-22T04:29:10.336Z,17.10
2023-05-22T04:31:15.047Z,17.05
2023-05-22T04:33:22.028Z,17.02
2023-05-22T04:35:24.992Z,16.85
2023-05-22T04:37:28.614Z,16.00
2023-05-22T04:39:31.765Z,17.10
2023-05-22T04:41:34.668Z,16.50
2023-05-22T04:43:38.639Z,17.63
2023-05-22T04:45:42.225Z,17.75
2023-05-22T04:47:46.838Z,17.38
2023-05-22T04:49:49.740Z,17.02
2023-05-22T04:51:54.044Z,16.00
2023-05-22T04:53:58.225Z,17.73
2023-05-22T04:56:01.077Z,18.10
2023-05-22T04:58:03.919Z,16.25
2023-05-22T05:00:09.357Z,17.08
2023-05-22T05:02:12.281Z,17.10
2023-05-22T05:04:16.695Z,16.38
2023-05-22T05:06:21.639Z,17.15
2023-05-22T05:08:24.538Z,17.45
2023-05-22T05:10:27.494Z,18.05
2023-05-22T05:12:30.462Z,15.80
2023-05-22T05:14:33.417Z,16.05
2023-05-22T05:16:36.515Z,15.68
2023-05-22T05:18:39.485Z,16.67
2023-05-22T05:20:48.264Z,15.40
2023-05-22T05:22:51.478Z,15.95
2023-05-22T05:24:54.410Z,15.65
2023-05-22T05:26:57.450Z,15.70
2023-05-22T05:29:00.452Z,15.05
2023-05-22T05:31:03.383Z,16.02
2023-05-22T05:33:06.387Z,16.98
2023-05-22T05:35:10.614Z,15.82
2023-05-22T05:37:14.904Z,15.40
2023-05-22T05:39:17.872Z,15.63
2023-05-22T05:41:21.431Z,15.55
2023-05-22T05:43:25.373Z,15.18
2023-05-22T05:45:28.265Z,16.52
2023-05-22T05:47:31.335Z,16.95
2023-05-22T05:49:35.872Z,15.68
2023-05-22T05:51:39.383Z,15.77
2023-05-22T05:53:43.739Z,16.33
2023-05-22T05:55:46.547Z,15.50
2023-05-22T05:57:49.425Z,16.23
2023-05-22T05:59:52.362Z,14.90
2023-05-22T06:01:55.442Z,15.68
2023-05-22T06:04:03.176Z,16.40
2023-05-22T06:06:07.608Z,16.00
2023-05-22T06:08:12.743Z,15.10
2023-05-22T06:10:17.209Z,15.70
2023-05-22T06:12:20.206Z,15.57
2023-05-22T06:14:23.214Z,16.75
2023-05-22T06:16:33.536Z,16.45
2023-05-22T06:18:37.536Z,16.33
2023-05-22T06:20:40.782Z,16.73
2023-05-22T06:22:44.104Z,16.77
2023-05-22T06:24:49.532Z,19.98
2023-05-22T06:26:53.925Z,16.80
2023-05-22T06:28:57.008Z,14.93
2023-05-22T06:31:00.158Z,16.17
2023-05-22T06:33:04.057Z,16.25
2023-05-22T06:35:07.731Z,15.75
2023-05-22T06:37:12.985Z,15.93
2023-05-22T06:39:16.396Z,15.80
2023-05-22T06:41:19.449Z,16.05
2023-05-22T06:43:24.293Z,16.23
2023-05-22T06:45:27.281Z,20.45
2023-05-22T06:47:31.156Z,16.30
2023-05-22T06:49:34.237Z,15.23
2023-05-22T06:51:37.445Z,16.20
2023-05-22T06:53:40.749Z,14.77
2023-05-22T06:55:43.869Z,15.50
2023-05-22T06:57:47.123Z,15.07
2023-05-22T06:59:51.748Z,15.23
2023-05-22T07:01:54.953Z,14.32
2023-05-22T07:04:00.387Z,15.98
2023-05-22T07:06:03.801Z,14.80
2023-05-22T07:08:08.404Z,15.65
2023-05-22T07:10:11.906Z,13.50
2023-05-22T07:12:14.834Z,14.25
2023-05-22T07:14:18.116Z,13.07
2023-05-22T07:16:23.656Z,13.35
2023-05-22T07:18:26.793Z,16.13
2023-05-22T07:20:29.874Z,13.50
2023-05-22T07:22:33.004Z,12.27
2023-05-22T07:24:36.249Z,13.65
2023-05-22T07:26:39.834Z,12.80
2023-05-22T07:28:42.787Z,12.85
2023-05-22T07:30:45.840Z,13.73
2023-05-22T07:32:50.751Z,12.73
2023-05-22T07:34:54.036Z,15.57
2023-05-22T07:36:56.936Z,12.70
2023-05-22T07:39:00.078Z,12.93
2023-05-22T07:41:04.802Z,11.68
2023-05-22T07:43:07.837Z,11.32
2023-05-22T07:45:11.749Z,11.93
2023-05-22T07:47:14.715Z,12.27
2023-05-22T07:49:20.321Z,11.73
2023-05-22T07:51:26.201Z,11.88
2023-05-22T07:53:34.488Z,11.43
2023-05-22T07:55:37.562Z,11.30
2023-05-22T07:57:40.702Z,10.77
2023-05-22T07:59:44.159Z,10.68
2023-05-22T08:01:47.509Z,10.88
2023-05-22T08:03:50.675Z,10.80
2023-05-22T08:05:55.224Z,10.90
2023-05-22T08:07:58.622Z,11.68
2023-05-22T08:10:05.095Z,10.52
2023-05-22T08:12:09.035Z,9.90
2023-05-22T08:14:12.637Z,10.15
2023-05-22T08:16:15.640Z,10.20
2023-05-22T08:18:18.692Z,10.57
2023-05-22T08:20:21.699Z,11.15
2023-05-22T08:22:26.352Z,10.30
2023-05-22T08:24:31.270Z,10.25
2023-05-22T08:26:34.439Z,10.05
2023-05-22T08:28:41.953Z,10.88
2023-05-22T08:30:50.046Z,9.98
2023-05-22T08:32:53.398Z,10.63
2023-05-22T08:34:56.518Z,9.93
2023-05-22T08:37:00.031Z,9.95
2023-05-22T08:39:06.450Z,10.77
2023-05-22T08:41:10.559Z,10.30
2023-05-22T08:43:16.085Z,11.23
2023-05-22T08:45:19.782Z,10.55
2023-05-22T08:47:24.308Z,9.93
2023-05-22T08:49:27.946Z,10.57
2023-05-22T08:51:34.238Z,9.60
2023-05-22T08:53:39.647Z,9.65
2023-05-22T08:55:44.373Z,8.60
2023-05-22T08:57:48.466Z,9.52
2023-05-22T08:59:52.659Z,9.30
2023-05-22T09:01:58.006Z,9.07
2023-05-22T09:04:02.344Z,9.18
2023-05-22T09:06:11.025Z,9.35
2023-05-22T09:08:20.530Z,9.00
2023-05-22T09:10:26.019Z,8.88
2023-05-22T09:12:30.569Z,8.50
2023-05-22T09:14:40.214Z,8.75
2023-05-22T09:16:47.289Z,8.63
2023-05-22T09:18:50.645Z,8.95
2023-05-22T09:20:53.699Z,8.40
2023-05-22T09:22:56.787Z,9.10
2023-05-22T09:25:00.003Z,9.32
2023-05-22T09:27:05.120Z,9.07
2023-05-22T09:29:09.781Z,8.98
2023-05-22T09:31:13.233Z,9.18
2023-05-22T09:33:17.291Z,9.00
2023-05-22T09:35:20.799Z,9.80
2023-05-22T09:37:23.774Z,9.00
2023-05-22T09:39:28.838Z,8.88
2023-05-22T09:41:36.182Z,9.85
2023-05-22T09:43:39.065Z,9.50
2023-05-22T09:45:43.284Z,9.63
2023-05-22T09:47:50.361Z,8.75
2023-05-22T09:49:53.343Z,10.13
2023-05-22T09:51:56.667Z,10.02
2023-05-22T09:54:06.228Z,8.70
2023-05-22T09:56:15.930Z,9.32
2023-05-22T09:58:26.765Z,9.13
2023-05-22T10:00:30.126Z,8.95
2023-05-22T10:02:35.759Z,10.57
2023-05-22T10:04:40.183Z,9.07
2023-05-22T10:06:45.842Z,9.02
2023-05-22T10:08:57.229Z,8.50
2023-05-22T10:11:00.455Z,8.90
2023-05-22T10:13:06.250Z,8.70
2023-05-22T10:15:11.135Z,10.10
2023-05-22T10:17:16.774Z,8.60
2023-05-22T10:19:21.583Z,8.20
2023-05-22T10:21:25.782Z,8.75
2023-05-22T10:23:33.042Z,12.02
2023-05-22T10:25:39.359Z,8.57
2023-05-22T10:27:42.774Z,8.82
2023-05-22T10:29:52.087Z,8.93
2023-05-22T10:32:02.643Z,8.38
2023-05-22T10:34:09.250Z,8.18
2023-05-22T10:36:21.071Z,10.23
2023-05-22T10:38:46.965Z,8.25
2023-05-22T10:40:50.781Z,8.38
2023-05-22T10:42:53.715Z,7.63
2023-05-22T10:44:56.862Z,7.57
2023-05-22T10:47:10.271Z,9.60
2023-05-22T10:49:22.305Z,8.77
2023-05-22T10:51:26.862Z,7.53
2023-05-22T10:53:33.329Z,8.07
2023-05-22T10:55:48.081Z,7.38
2023-05-22T10:57:55.620Z,8.32
2023-05-22T11:00:09.521Z,7.68
2023-05-22T11:02:21.247Z,7.90
2023-05-22T11:04:26.418Z,7.82
2023-05-22T11:06:36.646Z,8.00
2023-05-22T11:08:39.925Z,7.43
2023-05-22T11:10:56.059Z,8.20
2023-05-22T11:13:12.865Z,7.18
2023-05-22T11:15:15.898Z,7.85
2023-05-22T11:17:21.876Z,8.27
2023-05-22T11:19:25.158Z,9.90
2023-05-22T11:21:31.044Z,8.00
2023-05-22T11:23:38.842Z,8.35
2023-05-22T11:25:42.246Z,7.97
2023-05-22T11:27:45.865Z,8.13
2023-05-22T11:29:49.441Z,8.55
2023-05-22T11:31:52.547Z,8.93
2023-05-22T11:33:55.817Z,8.15
2023-05-22T11:35:59.049Z,8.27
2023-05-22T11:38:06.193Z,8.15
2023-05-22T11:40:12.097Z,8.88
2023-05-22T11:42:15.324Z,8.23
2023-05-22T11:44:18.511Z,8.13
2023-05-22T11:46:21.638Z,8.27
2023-05-22T11:48:25.024Z,7.38
2023-05-22T11:50:40.979Z,8.20
2023-05-22T11:52:46.034Z,7.72
2023-05-22T11:54:49.746Z,7.80
2023-05-22T11:56:54.332Z,7.63
2023-05-22T11:58:58.036Z,8.23
2023-05-22T12:01:03.209Z,8.27
2023-05-22T12:03:07.678Z,8.13
2023-05-22T12:05:11.936Z,7.20
2023-05-22T12:07:15.151Z,8.00
2023-05-22T12:09:18.184Z,8.23
2023-05-22T12:11:21.680Z,8.25
2023-05-22T12:13:31.291Z,7.57
2023-05-22T12:15:34.535Z,8.13
2023-05-22T12:17:38.577Z,7.75
2023-05-22T12:19:42.132Z,7.93
2023-05-22T12:21:46.169Z,8.00
2023-05-22T12:23:50.268Z,7.00
2023-05-22T12:26:00.656Z,7.78
2023-05-22T12:28:03.777Z,7.07
2023-05-22T12:30:14.756Z,10.60
2023-05-22T12:32:18.381Z,8.05
2023-05-22T12:34:21.457Z,7.45
2023-05-22T12:36:33.784Z,6.93
2023-05-22T12:38:53.075Z,7.88
2023-05-22T12:40:57.007Z,7.18
2023-05-22T12:42:59.959Z,6.88
2023-05-22T12:45:02.987Z,7.43
2023-05-22T12:47:17.297Z,7.40
2023-05-22T12:49:20.549Z,7.13
2023-05-22T12:51:24.051Z,7.78
2023-05-22T12:53:32.945Z,6.70
2023-05-22T12:55:39.514Z,7.65
2023-05-22T12:57:42.431Z,7.25
2023-05-22T12:59:45.553Z,7.85
2023-05-22T13:01:51.480Z,7.32
2023-05-22T13:03:56.606Z,7.03
2023-05-22T13:06:02.703Z,7.47
2023-05-22T13:08:05.912Z,7.35
2023-05-22T13:10:13.401Z,7.22
2023-05-22T13:12:16.498Z,7.60
2023-05-22T13:14:19.779Z,7.32
2023-05-22T13:16:22.998Z,7.30
2023-05-22T13:18:25.949Z,8.25
2023-05-22T13:20:30.358Z,7.00
2023-05-22T13:22:34.715Z,7.43
2023-05-22T13:24:45.954Z,7.22
2023-05-22T13:26:49.017Z,7.60
2023-05-22T13:28:53.158Z,7.13
2023-05-22T13:30:56.574Z,8.07
2023-05-22T13:33:00.057Z,8.25
2023-05-22T13:35:03.157Z,9.07
2023-05-22T13:37:07.746Z,8.18
2023-05-22T13:39:10.812Z,7.80
2023-05-22T13:41:15.386Z,7.55
2023-05-22T13:43:18.566Z,7.70
2023-05-22T13:45:21.819Z,8.10
2023-05-22T13:47:25.935Z,8.55
2023-05-22T13:49:29.038Z,7.82
2023-05-22T13:51:32.063Z,8.07
2023-05-22T13:53:38.396Z,7.75
2023-05-22T13:55:41.668Z,7.57
2023-05-22T13:57:44.727Z,7.50
2023-05-22T13:59:48.074Z,7.80
2023-05-22T14:01:51.428Z,7.70
2023-05-22T14:03:55.739Z,7.70
2023-05-22T14:05:59.263Z,7.68
2023-05-22T14:08:02.547Z,7.93
2023-05-22T14:10:08.153Z,7.60
2023-05-22T14:12:11.250Z,7.13
2023-05-22T14:14:14.279Z,7.60
2023-05-22T14:16:17.694Z,6.82
2023-05-22T14:18:20.961Z,7.82
2023-05-22T14:20:23.889Z,7.10
2023-05-22T14:22:26.982Z,7.03
2023-05-22T14:24:30.160Z,7.82
2023-05-22T14:26:34.662Z,6.80
2023-05-22T14:28:37.792Z,7.07
2023-05-22T14:30:42.522Z,8.50
2023-05-22T14:32:46.772Z,7.15
2023-05-22T14:34:50.250Z,7.47
2023-05-22T14:36:53.433Z,7.95
2023-05-22T14:38:58.393Z,6.95
2023-05-22T14:41:01.534Z,7.43
2023-05-22T14:43:06.232Z,7.85
2023-05-22T14:45:10.049Z,10.40
2023-05-22T14:47:13.228Z,9.00
2023-05-22T14:49:16.546Z,7.97
2023-05-22T14:51:21.210Z,7.75
2023-05-22T14:53:24.706Z,9.70
2023-05-22T14:55:28.533Z,8.10
2023-05-22T14:57:31.814Z,7.93
2023-05-22T14:59:36.240Z,9.25
2023-05-22T15:01:39.406Z,8.48
2023-05-22T15:03:42.412Z,9.77
2023-05-22T15:05:45.698Z,8.68
2023-05-22T15:07:51.249Z,8.55
2023-05-22T15:09:56.265Z,9.30
2023-05-22T15:11:59.245Z,9.18
2023-05-22T15:14:02.153Z,10.20
2023-05-22T15:16:06.995Z,7.82
2023-05-22T15:18:10.466Z,8.00
2023-05-22T15:20:13.870Z,7.95
2023-05-22T15:22:19.871Z,7.78
2023-05-22T15:24:22.936Z,7.75
2023-05-22T15:26:25.804Z,7.68
2023-05-22T15:28:28.738Z,10.43
2023-05-22T15:30:35.951Z,8.13
2023-05-22T15:32:40.721Z,10.02
2023-05-22T15:34:44.796Z,7.28
2023-05-22T15:36:47.932Z,7.88
2023-05-22T15:38:51.057Z,6.30
2023-05-22T15:40:54.484Z,6.10
2023-05-22T15:42:57.700Z,7.50
2023-05-22T15:45:01.343Z,6.88
2023-05-22T15:47:05.775Z,5.65
2023-05-22T15:49:09.953Z,6.30
2023-05-22T15:51:12.904Z,6.20
2023-05-22T15:53:15.805Z,6.53
2023-05-22T15:55:19.850Z,7.10
2023-05-22T15:57:22.751Z,9.18
2023-05-22T15:59:25.922Z,8.30
2023-05-22T16:01:29.384Z,10.38
2023-05-22T16:03:32.329Z,8.40
2023-05-22T16:05:36.796Z,10.25
2023-05-22T16:07:39.667Z,9.88
2023-05-22T16:09:43.332Z,8.73
2023-05-22T16:11:46.436Z,10.43
2023-05-22T16:13:49.541Z,10.05
2023-05-22T16:15:54.517Z,9.50
2023-05-22T16:17:57.446Z,10.73
2023-05-22T16:20:00.447Z,9.32
2023-05-22T16:22:05.078Z,10.80
2023-05-22T16:24:08.779Z,10.13
2023-05-22T16:26:11.675Z,11.57
2023-05-22T16:28:14.532Z,10.25
2023-05-22T16:30:18.133Z,10.00
2023-05-22T16:32:20.996Z,10.43
2023-05-22T16:34:23.895Z,12.15
2023-05-22T16:36:27.461Z,10.13
2023-05-22T16:38:31.800Z,9.48
2023-05-22T16:40:34.832Z,10.68
2023-05-22T16:42:38.341Z,10.38
2023-05-22T16:44:41.388Z,9.50
2023-05-22T16:46:44.381Z,10.45
2023-05-22T16:48:47.484Z,10.32
2023-05-22T16:50:50.320Z,11.38
2023-05-22T16:52:53.205Z,11.15
2023-05-22T16:54:57.462Z,11.70
2023-05-22T16:57:00.783Z,10.88
2023-05-22T16:59:05.016Z,11.40
2023-05-22T17:01:08.182Z,12.85
2023-05-22T17:03:11.953Z,11.25
2023-05-22T17:05:15.061Z,10.00
2023-05-22T17:07:18.190Z,11.68
2023-05-22T17:09:21.775Z,11.32
2023-05-22T17:11:26.451Z,14.30
2023-05-22T17:13:29.541Z,13.65
2023-05-22T17:15:32.763Z,11.93
2023-05-22T17:17:36.019Z,10.07
2023-05-22T17:19:39.489Z,11.82
2023-05-22T17:21:43.163Z,11.85
2023-05-22T17:23:46.419Z,14.23
2023-05-22T17:25:50.678Z,15.23
2023-05-22T17:27:55.050Z,17.10
2023-05-22T17:29:57.894Z,14.60
2023-05-22T17:32:01.029Z,18.67
2023-05-22T17:34:04.909Z,13.88
2023-05-22T17:36:08.723Z,14.45
2023-05-22T17:38:11.755Z,15.30
2023-05-22T17:40:14.898Z,15.00
2023-05-22T17:42:17.850Z,15.52
2023-05-22T17:44:22.087Z,13.68
2023-05-22T17:46:26.448Z,15.15
2023-05-22T17:48:30.809Z,11.48
2023-05-22T17:50:33.936Z,13.43
2023-05-22T17:52:37.248Z,13.48
2023-05-22T17:54:40.176Z,13.45
2023-05-22T17:56:43.576Z,13.13
2023-05-22T17:58:46.595Z,11.40
2023-05-22T18:00:51.118Z,13.80
2023-05-22T18:02:54.408Z,11.00
2023-05-22T18:04:57.538Z,10.30
2023-05-22T18:07:00.603Z,13.13
2023-05-22T18:09:04.496Z,9.38
2023-05-22T18:11:07.735Z,10.65
2023-05-22T18:13:11.805Z,9.25
2023-05-22T18:15:14.907Z,11.77
2023-05-22T18:17:19.291Z,9.18
2023-05-22T18:19:22.283Z,9.45
2023-05-22T18:21:26.578Z,8.93
2023-05-22T18:23:32.192Z,9.32
2023-05-22T18:25:35.181Z,8.18
2023-05-22T18:27:38.157Z,8.93
2023-05-22T18:29:41.140Z,7.28
2023-05-22T18:31:44.080Z,8.20
2023-05-22T18:33:48.370Z,8.05
2023-05-22T18:35:51.340Z,7.50
2023-05-22T18:37:54.330Z,6.78
2023-05-22T18:39:57.497Z,7.25
2023-05-22T18:42:00.972Z,7.10
2023-05-22T18:44:04.240Z,7.00
2023-05-22T18:46:07.255Z,6.55
2023-05-22T18:48:11.288Z,6.50
2023-05-22T18:50:15.916Z,7.80
2023-05-22T18:52:18.841Z,7.15
2023-05-22T18:54:21.709Z,7.75
2023-05-22T18:56:31.666Z,7.07
2023-05-22T18:58:41.142Z,10.52
2023-05-22T19:00:45.218Z,7.00
2023-05-22T19:02:48.747Z,10.60
2023-05-22T19:05:05.487Z,7.38
2023-05-22T19:07:10.096Z,7.13
2023-05-22T19:09:17.364Z,7.30
2023-05-22T19:11:20.853Z,7.95
2023-05-22T19:13:25.903Z,7.20
2023-05-22T19:15:35.309Z,8.07
2023-05-22T19:17:38.494Z,9.20
2023-05-22T19:19:41.559Z,10.77
2023-05-22T19:21:44.844Z,10.13
2023-05-22T19:23:53.500Z,9.40
2023-05-22T19:26:00.752Z,9.13
2023-05-22T19:28:04.065Z,10.00
2023-05-22T19:30:08.540Z,10.77
2023-05-22T19:32:12.998Z,10.63
2023-05-22T19:34:16.300Z,9.68
2023-05-22T19:36:19.390Z,11.93
2023-05-22T19:38:35.728Z,11.40
2023-05-22T19:42:57.184Z,10.55
2023-05-22T19:45:02.161Z,10.30
2023-05-22T19:47:07.579Z,12.00
2023-05-22T19:49:10.560Z,11.20
2023-05-22T19:51:13.966Z,11.25
2023-05-22T19:53:17.003Z,13.00
2023-05-22T19:55:20.060Z,11.70
2023-05-22T19:57:24.485Z,10.98
2023-05-22T19:59:28.560Z,11.95
2023-05-22T20:01:31.753Z,12.48
2023-05-22T20:03:35.701Z,13.68
2023-05-22T20:05:39.433Z,16.08
2023-05-22T20:07:43.612Z,15.90
2023-05-22T20:09:46.526Z,16.17
2023-05-22T20:11:49.536Z,15.75
2023-05-22T20:13:55.719Z,15.18
2023-05-22T20:16:03.153Z,16.27
2023-05-22T20:18:06.754Z,16.15
2023-05-22T20:20:10.689Z,20.65
2023-05-22T20:22:14.013Z,22.02
2023-05-22T20:24:21.939Z,23.27
2023-05-22T20:26:24.962Z,24.83
2023-05-22T20:28:27.844Z,29.15
2023-05-22T20:30:32.438Z,31.45
2023-05-22T20:32:35.462Z,34.50
2023-05-22T20:34:40.414Z,38.22
2023-05-22T20:37:06.642Z,55.50
2023-05-22T20:39:10.779Z,60.55
2023-05-22T20:41:13.893Z,79.70
2023-05-22T20:43:19.093Z,89.40
2023-05-22T20:45:23.469Z,103.93
2023-05-22T20:47:28.114Z,114.85
2023-05-22T20:49:34.694Z,120.88
2023-05-22T20:51:40.788Z,128.07
2023-05-22T20:53:44.121Z,132.77
2023-05-22T20:55:48.045Z,146.32
2023-05-22T20:57:51.638Z,159.93
2023-05-22T20:59:56.090Z,166.48
2023-05-22T21:02:11.315Z,171.68
2023-05-22T21:04:19.699Z,183.65
2023-05-22T21:06:22.780Z,180.43
2023-05-22T21:08:27.181Z,217.27
2023-05-22T21:10:30.337Z,243.00
2023-05-22T21:12:35.537Z,254.65
2023-05-22T21:14:40.162Z,252.52
2023-05-22T21:16:44.554Z,301.33
2023-05-22T21:18:47.859Z,292.90
2023-05-22T21:20:57.428Z,279.17
2023-05-22T21:23:00.629Z,308.00
2023-05-22T21:25:08.493Z,268.77
2023-05-22T21:27:11.600Z,302.38
2023-05-22T21:29:14.914Z,324.98
2023-05-22T21:31:21.182Z,298.50
2023-05-22T21:33:26.041Z,281.95
2023-05-22T21:35:29.169Z,239.30
2023-05-22T21:37:34.167Z,266.58
2023-05-22T21:39:37.384Z,226.15
2023-05-22T21:41:40.524Z,239.32
2023-05-22T21:43:43.948Z,226.23
2023-05-22T21:45:47.116Z,252.98
2023-05-22T21:47:50.371Z,252.80
2023-05-22T21:49:53.486Z,237.68
2023-05-22T21:51:56.779Z,209.05
2023-05-22T21:54:03.428Z,212.75
2023-05-22T21:56:06.916Z,192.48
2023-05-22T21:58:10.343Z,185.48
2023-05-22T22:00:17.276Z,201.73
2023-05-22T22:02:20.388Z,197.35
2023-05-22T22:04:23.454Z,201.38
2023-05-22T22:06:26.492Z,215.65
2023-05-22T22:08:29.501Z,190.52
2023-05-22T22:10:34.038Z,196.13
2023-05-22T22:12:37.315Z,203.82
2023-05-22T22:14:40.378Z,175.15
2023-05-22T22:16:45.960Z,182.80
2023-05-22T22:18:50.340Z,176.80
2023-05-22T22:20:54.121Z,169.60
2023-05-22T22:22:57.105Z,138.80
2023-05-22T22:25:01.283Z,144.00
2023-05-22T22:27:06.241Z,148.50
2023-05-22T22:29:09.424Z,146.65
2023-05-22T22:31:12.485Z,137.27
2023-05-22T22:33:18.949Z,128.20
2023-05-22T22:35:22.106Z,113.38
2023-05-22T22:37:25.152Z,106.63
2023-05-22T22:39:28.292Z,101.70
2023-05-22T22:41:31.397Z,97.95
2023-05-22T22:43:36.238Z,85.18
2023-05-22T22:45:40.722Z,70.20
2023-05-22T22:47:44.241Z,60.53
2023-05-22T22:49:47.330Z,54.92
2023-05-22T22:51:51.092Z,47.08
2023-05-22T22:53:56.982Z,40.05
2023-05-22T22:56:00.272Z,36.50
2023-05-22T22:58:05.325Z,30.83
2023-05-22T23:00:13.109Z,27.08
2023-05-22T23:02:17.395Z,26.13
2023-05-22T23:04:20.788Z,22.95
2023-05-22T23:06:23.995Z,21.85
2023-05-22T23:08:29.641Z,19.70
2023-05-22T23:10:32.692Z,20.10
2023-05-22T23:12:36.269Z,18.42
2023-05-22T23:14:41.693Z,19.20
2023-05-22T23:16:46.350Z,19.15
2023-05-22T23:18:49.507Z,18.38
2023-05-22T23:20:52.995Z,18.05
2023-05-22T23:22:58.682Z,17.63
2023-05-22T23:25:01.783Z,20.17
2023-05-22T23:27:05.365Z,18.90
2023-05-22T23:29:08.516Z,18.23
2023-05-22T23:31:14.127Z,19.48
2023-05-22T23:33:18.714Z,19.48
2023-05-22T23:35:21.758Z,19.35
2023-05-22T23:37:24.777Z,19.80
2023-05-22T23:39:28.108Z,21.15
2023-05-22T23:41:31.381Z,21.60
2023-05-22T23:43:34.381Z,22.35
2023-05-22T23:45:37.931Z,21.17
2023-05-22T23:47:43.202Z,23.02
2023-05-22T23:49:47.752Z,22.88
2023-05-22T23:51:51.207Z,22.52
2023-05-22T23:53:54.233Z,22.67
2023-05-22T23:55:57.322Z,24.02
2023-05-22T23:58:00.520Z,23.70
